UAL683 KSFO-KPSP
Flight info
| Callsign | UAL683 |
|---|---|
| Flight time | 1h 3m |
| Altitude | 37000 |
| Route | WESLA5 KAYEX LOSHN CLASN SIZLR4 |
| Aircraft | B737/M-SDE2E3FGHIRWXY/LB1 |
Departure
| Time | 2026-05-08 18:03 |
|---|---|
| Airport | San Francisco International Airport (KSFO) |
Arrival
| Time | 2026-05-08 19:06 |
|---|---|
| Airport | Palm Springs International Airport (KPSP) |
| Time | Latitude | Longitude | Altitude | Speed | Heading |
|---|---|---|---|---|---|
| 2026-05-08 17:31 | 37.61991 | -122.38456 | 21 ft | 0 kts | 164° |
| 2026-05-08 17:51 | 37.61994 | -122.38457 | 21 ft | 3 kts | 164° |
| 2026-05-08 17:51 | 37.62019 | -122.38467 | 23 ft | 4 kts | 164° |
| 2026-05-08 17:51 | 37.62045 | -122.38476 | 25 ft | 4 kts | 164° |
| 2026-05-08 17:52 | 37.62066 | -122.38484 | 21 ft | 2 kts | 163° |
| 2026-05-08 17:52 | 37.62088 | -122.38497 | 21 ft | 4 kts | 128° |
| 2026-05-08 17:52 | 37.62112 | -122.38552 | 22 ft | 4 kts | 117° |
| 2026-05-08 17:53 | 37.62117 | -122.38563 | 22 ft | 0 kts | 117° |
| 2026-05-08 17:55 | 37.62108 | -122.38542 | 23 ft | 10 kts | 117° |
| 2026-05-08 17:55 | 37.62071 | -122.38453 | 21 ft | 12 kts | 117° |
| 2026-05-08 17:56 | 37.62034 | -122.38362 | 21 ft | 12 kts | 117° |
| 2026-05-08 17:56 | 37.61996 | -122.38275 | 21 ft | 11 kts | 118° |
| 2026-05-08 17:56 | 37.61960 | -122.38188 | 21 ft | 12 kts | 117° |
| 2026-05-08 17:56 | 37.61916 | -122.38083 | 21 ft | 15 kts | 118° |
| 2026-05-08 17:57 | 37.61864 | -122.37962 | 21 ft | 16 kts | 118° |
| 2026-05-08 17:57 | 37.61817 | -122.37830 | 21 ft | 18 kts | 112° |
| 2026-05-08 17:57 | 37.61772 | -122.37678 | 21 ft | 18 kts | 108° |
| 2026-05-08 17:57 | 37.61726 | -122.37531 | 21 ft | 18 kts | 115° |
| 2026-05-08 17:58 | 37.61671 | -122.37396 | 22 ft | 17 kts | 118° |
| 2026-05-08 17:58 | 37.61616 | -122.37266 | 22 ft | 16 kts | 117° |
| 2026-05-08 17:58 | 37.61564 | -122.37140 | 21 ft | 16 kts | 117° |
| 2026-05-08 17:58 | 37.61514 | -122.37020 | 21 ft | 15 kts | 118° |
| 2026-05-08 17:59 | 37.61455 | -122.36909 | 21 ft | 16 kts | 131° |
| 2026-05-08 17:59 | 37.61378 | -122.36798 | 21 ft | 17 kts | 128° |
| 2026-05-08 17:59 | 37.61320 | -122.36672 | 21 ft | 16 kts | 117° |
| 2026-05-08 17:59 | 37.61262 | -122.36535 | 21 ft | 19 kts | 117° |
| 2026-05-08 18:00 | 37.61221 | -122.36435 | 21 ft | 20 kts | 117° |
| 2026-05-08 18:00 | 37.61095 | -122.36142 | 22 ft | 18 kts | 118° |
| 2026-05-08 18:00 | 37.61050 | -122.36006 | 21 ft | 13 kts | 93° |
| 2026-05-08 18:01 | 37.61078 | -122.35929 | 22 ft | 9 kts | 45° |
| 2026-05-08 18:01 | 37.61096 | -122.35910 | 23 ft | 0 kts | 34° |
| 2026-05-08 18:02 | 37.61110 | -122.35899 | 23 ft | 9 kts | 32° |
| 2026-05-08 18:02 | 37.61189 | -122.35896 | 21 ft | 13 kts | 320° |
| 2026-05-08 18:02 | 37.61239 | -122.36001 | 22 ft | 21 kts | 297° |
| 2026-05-08 18:03 | 37.61422 | -122.36433 | 21 ft | 93 kts | 298° |
| 2026-05-08 18:03 | 37.61818 | -122.37396 | 89 ft | 147 kts | 296° |
| 2026-05-08 18:03 | 37.62325 | -122.38568 | 766 ft | 155 kts | 296° |
| 2026-05-08 18:03 | 37.62850 | -122.39793 | 1542 ft | 161 kts | 298° |
| 2026-05-08 18:04 | 37.63399 | -122.41066 | 2222 ft | 175 kts | 299° |
| 2026-05-08 18:04 | 37.64028 | -122.42489 | 2586 ft | 203 kts | 299° |
| 2026-05-08 18:04 | 37.64736 | -122.44157 | 2896 ft | 228 kts | 299° |
| 2026-05-08 18:04 | 37.65518 | -122.45935 | 3702 ft | 232 kts | 301° |
| 2026-05-08 18:05 | 37.66319 | -122.47696 | 4632 ft | 234 kts | 301° |
| 2026-05-08 18:05 | 37.66923 | -122.49646 | 5376 ft | 245 kts | 277° |
| 2026-05-08 18:05 | 37.66698 | -122.51769 | 6351 ft | 247 kts | 248° |
| 2026-05-08 18:05 | 37.65668 | -122.53437 | 7457 ft | 243 kts | 217° |
| 2026-05-08 18:06 | 37.64089 | -122.54313 | 8222 ft | 260 kts | 193° |
| 2026-05-08 18:06 | 37.62211 | -122.54353 | 8799 ft | 281 kts | 171° |
| 2026-05-08 18:06 | 37.60336 | -122.53558 | 9806 ft | 284 kts | 157° |
| 2026-05-08 18:06 | 37.58534 | -122.52512 | 10714 ft | 290 kts | 156° |
| 2026-05-08 18:07 | 37.56611 | -122.51405 | 11053 ft | 318 kts | 158° |
| 2026-05-08 18:07 | 37.54480 | -122.50257 | 11268 ft | 348 kts | 159° |
| 2026-05-08 18:07 | 37.52159 | -122.49062 | 11553 ft | 371 kts | 159° |
| 2026-05-08 18:07 | 37.49753 | -122.47762 | 12206 ft | 381 kts | 152° |
| 2026-05-08 18:08 | 37.47691 | -122.45640 | 12988 ft | 388 kts | 132° |
| 2026-05-08 18:08 | 37.45955 | -122.43028 | 13858 ft | 391 kts | 129° |
| 2026-05-08 18:08 | 37.44248 | -122.40340 | 14594 ft | 395 kts | 129° |
| 2026-05-08 18:08 | 37.42530 | -122.37605 | 15273 ft | 401 kts | 129° |
| 2026-05-08 18:09 | 37.40786 | -122.34835 | 15995 ft | 406 kts | 129° |
| 2026-05-08 18:09 | 37.39022 | -122.32051 | 16767 ft | 409 kts | 129° |
| 2026-05-08 18:09 | 37.37229 | -122.29243 | 17462 ft | 414 kts | 130° |
| 2026-05-08 18:09 | 37.35405 | -122.26402 | 18131 ft | 420 kts | 130° |
| 2026-05-08 18:10 | 37.33559 | -122.23540 | 18770 ft | 424 kts | 130° |
| 2026-05-08 18:10 | 37.31712 | -122.20682 | 19370 ft | 428 kts | 130° |
| 2026-05-08 18:10 | 37.29830 | -122.17774 | 19988 ft | 431 kts | 130° |
| 2026-05-08 18:10 | 37.27926 | -122.14836 | 20593 ft | 435 kts | 130° |
| 2026-05-08 18:11 | 37.26007 | -122.11877 | 21207 ft | 439 kts | 130° |
| 2026-05-08 18:11 | 37.24066 | -122.08889 | 21795 ft | 443 kts | 130° |
| 2026-05-08 18:11 | 37.22115 | -122.05885 | 22342 ft | 447 kts | 130° |
| 2026-05-08 18:11 | 37.20133 | -122.02839 | 22875 ft | 452 kts | 130° |
| 2026-05-08 18:12 | 37.18139 | -121.99774 | 23421 ft | 455 kts | 130° |
| 2026-05-08 18:12 | 37.16128 | -121.96687 | 23913 ft | 459 kts | 130° |
| 2026-05-08 18:12 | 37.14104 | -121.93583 | 24359 ft | 462 kts | 130° |
| 2026-05-08 18:12 | 37.12058 | -121.90448 | 24824 ft | 465 kts | 130° |
| 2026-05-08 18:13 | 37.10008 | -121.87311 | 25301 ft | 468 kts | 130° |
| 2026-05-08 18:13 | 37.07940 | -121.84148 | 25747 ft | 471 kts | 130° |
| 2026-05-08 18:13 | 37.05857 | -121.80965 | 26190 ft | 474 kts | 130° |
| 2026-05-08 18:13 | 37.03761 | -121.77768 | 26620 ft | 476 kts | 130° |
| 2026-05-08 18:14 | 37.01653 | -121.74552 | 27033 ft | 479 kts | 130° |
| 2026-05-08 18:14 | 36.99530 | -121.71319 | 27436 ft | 482 kts | 129° |
| 2026-05-08 18:14 | 36.97401 | -121.68078 | 27817 ft | 485 kts | 129° |
| 2026-05-08 18:14 | 36.95245 | -121.64801 | 28181 ft | 488 kts | 129° |
| 2026-05-08 18:15 | 36.93081 | -121.61513 | 28533 ft | 491 kts | 129° |
| 2026-05-08 18:15 | 36.90895 | -121.58198 | 28882 ft | 494 kts | 129° |
| 2026-05-08 18:15 | 36.88707 | -121.54880 | 29233 ft | 496 kts | 130° |
| 2026-05-08 18:15 | 36.86504 | -121.51544 | 29557 ft | 499 kts | 129° |
| 2026-05-08 18:16 | 36.84312 | -121.48229 | 29883 ft | 501 kts | 129° |
| 2026-05-08 18:16 | 36.82095 | -121.44877 | 30277 ft | 502 kts | 129° |
| 2026-05-08 18:16 | 36.79871 | -121.41519 | 30697 ft | 500 kts | 129° |
| 2026-05-08 18:16 | 36.77656 | -121.38178 | 31133 ft | 499 kts | 129° |
| 2026-05-08 18:17 | 36.75444 | -121.34845 | 31559 ft | 499 kts | 129° |
| 2026-05-08 18:17 | 36.73234 | -121.31519 | 31929 ft | 499 kts | 129° |
| 2026-05-08 18:17 | 36.71022 | -121.28191 | 32322 ft | 498 kts | 129° |
| 2026-05-08 18:17 | 36.68811 | -121.24871 | 32752 ft | 497 kts | 129° |
| 2026-05-08 18:18 | 36.66607 | -121.21563 | 33194 ft | 496 kts | 129° |
| 2026-05-08 18:18 | 36.64407 | -121.18264 | 33601 ft | 495 kts | 129° |
| 2026-05-08 18:18 | 36.62203 | -121.14963 | 33967 ft | 495 kts | 129° |
| 2026-05-08 18:18 | 36.60007 | -121.11677 | 34287 ft | 495 kts | 129° |
| 2026-05-08 18:19 | 36.57805 | -121.08383 | 34600 ft | 494 kts | 129° |
| 2026-05-08 18:19 | 36.55602 | -121.05093 | 34928 ft | 493 kts | 128° |
| 2026-05-08 18:19 | 36.53410 | -121.01821 | 35260 ft | 492 kts | 128° |
| 2026-05-08 18:19 | 36.51222 | -120.98559 | 35530 ft | 492 kts | 128° |
| 2026-05-08 18:20 | 36.49026 | -120.95287 | 35795 ft | 493 kts | 128° |
| 2026-05-08 18:20 | 36.46832 | -120.92012 | 36068 ft | 492 kts | 128° |
| 2026-05-08 18:20 | 36.44650 | -120.88740 | 36363 ft | 492 kts | 127° |
| 2026-05-08 18:20 | 36.42496 | -120.85505 | 36642 ft | 491 kts | 127° |
| 2026-05-08 18:21 | 36.40319 | -120.82236 | 36929 ft | 491 kts | 127° |
| 2026-05-08 18:21 | 36.38142 | -120.78968 | 37131 ft | 492 kts | 127° |
| 2026-05-08 18:21 | 36.33747 | -120.72386 | 37113 ft | 495 kts | 127° |
| 2026-05-08 18:22 | 36.29359 | -120.65836 | 37097 ft | 491 kts | 127° |
| 2026-05-08 18:22 | 36.25012 | -120.59359 | 37114 ft | 487 kts | 127° |
| 2026-05-08 18:23 | 36.20676 | -120.52909 | 37112 ft | 486 kts | 127° |
| 2026-05-08 18:23 | 36.16375 | -120.46523 | 37105 ft | 485 kts | 127° |
| 2026-05-08 18:24 | 36.12053 | -120.40118 | 37102 ft | 485 kts | 127° |
| 2026-05-08 18:24 | 36.07721 | -120.33709 | 37107 ft | 486 kts | 127° |
| 2026-05-08 18:25 | 36.03371 | -120.27287 | 37096 ft | 487 kts | 127° |
| 2026-05-08 18:25 | 35.99009 | -120.20860 | 37103 ft | 488 kts | 127° |
| 2026-05-08 18:26 | 35.94640 | -120.14434 | 37100 ft | 489 kts | 127° |
| 2026-05-08 18:26 | 35.90256 | -120.07996 | 37101 ft | 490 kts | 127° |
| 2026-05-08 18:27 | 35.86608 | -120.02648 | 37094 ft | 490 kts | 126° |
| 2026-05-08 18:27 | 35.84017 | -119.98136 | 37090 ft | 485 kts | 115° |
| 2026-05-08 18:27 | 35.82546 | -119.94423 | 37102 ft | 481 kts | 110° |
| 2026-05-08 18:28 | 35.79810 | -119.86895 | 37088 ft | 481 kts | 110° |
| 2026-05-08 18:28 | 35.77049 | -119.79391 | 37099 ft | 481 kts | 111° |
| 2026-05-08 18:29 | 35.74239 | -119.71922 | 37091 ft | 481 kts | 111° |
| 2026-05-08 18:29 | 35.71411 | -119.64460 | 37089 ft | 480 kts | 111° |
| 2026-05-08 18:30 | 35.68607 | -119.57064 | 37086 ft | 480 kts | 111° |
| 2026-05-08 18:30 | 35.65548 | -119.49759 | 37081 ft | 484 kts | 121° |
| 2026-05-08 18:31 | 35.61174 | -119.43421 | 37099 ft | 488 kts | 130° |
| 2026-05-08 18:31 | 35.56529 | -119.37336 | 37081 ft | 487 kts | 130° |
| 2026-05-08 18:32 | 35.51922 | -119.31224 | 37090 ft | 486 kts | 130° |
| 2026-05-08 18:32 | 35.47359 | -119.25097 | 37072 ft | 486 kts | 129° |
| 2026-05-08 18:33 | 35.42807 | -119.18978 | 37070 ft | 485 kts | 130° |
| 2026-05-08 18:33 | 35.38282 | -119.12913 | 37064 ft | 485 kts | 130° |
| 2026-05-08 18:34 | 35.33732 | -119.06828 | 37068 ft | 484 kts | 130° |
| 2026-05-08 18:34 | 35.29174 | -119.00754 | 37089 ft | 484 kts | 130° |
| 2026-05-08 18:35 | 35.24609 | -118.94709 | 37096 ft | 483 kts | 130° |
| 2026-05-08 18:35 | 35.20045 | -118.88677 | 37084 ft | 482 kts | 131° |
| 2026-05-08 18:36 | 35.15492 | -118.82665 | 37099 ft | 481 kts | 131° |
| 2026-05-08 18:36 | 35.10938 | -118.76660 | 37120 ft | 481 kts | 131° |
| 2026-05-08 18:37 | 35.06422 | -118.70715 | 37131 ft | 480 kts | 131° |
| 2026-05-08 18:37 | 35.01879 | -118.64746 | 37159 ft | 480 kts | 131° |
| 2026-05-08 18:38 | 34.97335 | -118.58786 | 37159 ft | 479 kts | 131° |
| 2026-05-08 18:38 | 34.92791 | -118.52835 | 37128 ft | 479 kts | 131° |
| 2026-05-08 18:39 | 34.88250 | -118.46899 | 36928 ft | 480 kts | 131° |
| 2026-05-08 18:39 | 34.85953 | -118.43900 | 36286 ft | 484 kts | 132° |
| 2026-05-08 18:39 | 34.83668 | -118.40918 | 35535 ft | 481 kts | 132° |
| 2026-05-08 18:40 | 34.81383 | -118.37939 | 34718 ft | 481 kts | 132° |
| 2026-05-08 18:40 | 34.79096 | -118.34961 | 33849 ft | 482 kts | 133° |
| 2026-05-08 18:40 | 34.76866 | -118.31905 | 32878 ft | 482 kts | 129° |
| 2026-05-08 18:40 | 34.74769 | -118.28728 | 31943 ft | 482 kts | 128° |
| 2026-05-08 18:41 | 34.72721 | -118.25499 | 30960 ft | 483 kts | 127° |
| 2026-05-08 18:41 | 34.70678 | -118.22252 | 29880 ft | 485 kts | 128° |
| 2026-05-08 18:41 | 34.68615 | -118.18999 | 28594 ft | 487 kts | 128° |
| 2026-05-08 18:41 | 34.66558 | -118.15792 | 27364 ft | 488 kts | 128° |
| 2026-05-08 18:42 | 34.64460 | -118.12546 | 26074 ft | 489 kts | 128° |
| 2026-05-08 18:42 | 34.62363 | -118.09314 | 25156 ft | 484 kts | 128° |
| 2026-05-08 18:42 | 34.60291 | -118.06124 | 24203 ft | 479 kts | 128° |
| 2026-05-08 18:42 | 34.58266 | -118.02940 | 23187 ft | 474 kts | 125° |
| 2026-05-08 18:43 | 34.56609 | -117.99549 | 22682 ft | 460 kts | 116° |
| 2026-05-08 18:43 | 34.55215 | -117.96098 | 22238 ft | 456 kts | 115° |
| 2026-05-08 18:43 | 34.53827 | -117.92599 | 21808 ft | 462 kts | 115° |
| 2026-05-08 18:43 | 34.52424 | -117.89084 | 21381 ft | 462 kts | 115° |
| 2026-05-08 18:44 | 34.51013 | -117.85591 | 20942 ft | 460 kts | 115° |
| 2026-05-08 18:44 | 34.49598 | -117.82124 | 20510 ft | 458 kts | 116° |
| 2026-05-08 18:44 | 34.48183 | -117.78678 | 20084 ft | 455 kts | 116° |
| 2026-05-08 18:44 | 34.46771 | -117.75244 | 19679 ft | 453 kts | 115° |
| 2026-05-08 18:45 | 34.45367 | -117.71835 | 19279 ft | 451 kts | 116° |
| 2026-05-08 18:45 | 34.43974 | -117.68449 | 18911 ft | 446 kts | 115° |
| 2026-05-08 18:45 | 34.42605 | -117.65103 | 18632 ft | 441 kts | 115° |
| 2026-05-08 18:45 | 34.41249 | -117.61783 | 18364 ft | 438 kts | 115° |
| 2026-05-08 18:46 | 34.39902 | -117.58484 | 18043 ft | 436 kts | 115° |
| 2026-05-08 18:46 | 34.38559 | -117.55197 | 17757 ft | 435 kts | 115° |
| 2026-05-08 18:46 | 34.37220 | -117.51923 | 17479 ft | 434 kts | 115° |
| 2026-05-08 18:46 | 34.35880 | -117.48652 | 17214 ft | 433 kts | 116° |
| 2026-05-08 18:47 | 34.34543 | -117.45394 | 16938 ft | 432 kts | 115° |
| 2026-05-08 18:47 | 34.33208 | -117.42143 | 16674 ft | 432 kts | 115° |
| 2026-05-08 18:47 | 34.32324 | -117.39991 | 16501 ft | 431 kts | 116° |
| 2026-05-08 18:47 | 34.30557 | -117.35697 | 16161 ft | 429 kts | 116° |
| 2026-05-08 18:48 | 34.29213 | -117.32486 | 16097 ft | 428 kts | 117° |
| 2026-05-08 18:48 | 34.27783 | -117.29336 | 16111 ft | 427 kts | 119° |
| 2026-05-08 18:48 | 34.26311 | -117.26212 | 16115 ft | 428 kts | 118° |
| 2026-05-08 18:48 | 34.25313 | -117.24108 | 16122 ft | 427 kts | 119° |
| 2026-05-08 18:49 | 34.23844 | -117.20994 | 16119 ft | 425 kts | 119° |
| 2026-05-08 18:49 | 34.22412 | -117.17934 | 16057 ft | 424 kts | 118° |
| 2026-05-08 18:49 | 34.20988 | -117.14874 | 16060 ft | 409 kts | 118° |
| 2026-05-08 18:49 | 34.19625 | -117.11936 | 16057 ft | 392 kts | 118° |
| 2026-05-08 18:50 | 34.18317 | -117.09120 | 16053 ft | 377 kts | 118° |
| 2026-05-08 18:50 | 34.17055 | -117.06404 | 16043 ft | 364 kts | 118° |
| 2026-05-08 18:50 | 34.15812 | -117.03774 | 15895 ft | 358 kts | 119° |
| 2026-05-08 18:50 | 34.14563 | -117.01164 | 15728 ft | 360 kts | 118° |
| 2026-05-08 18:51 | 34.13301 | -116.98528 | 15571 ft | 365 kts | 118° |
| 2026-05-08 18:51 | 34.12034 | -116.95878 | 15396 ft | 363 kts | 118° |
| 2026-05-08 18:51 | 34.10776 | -116.93248 | 15242 ft | 360 kts | 119° |
| 2026-05-08 18:51 | 34.09525 | -116.90633 | 15084 ft | 358 kts | 119° |
| 2026-05-08 18:52 | 34.08296 | -116.88028 | 14876 ft | 357 kts | 118° |
| 2026-05-08 18:52 | 34.07099 | -116.85457 | 14660 ft | 356 kts | 117° |
| 2026-05-08 18:52 | 34.05889 | -116.82857 | 14473 ft | 355 kts | 117° |
| 2026-05-08 18:52 | 34.04676 | -116.80263 | 14273 ft | 355 kts | 117° |
| 2026-05-08 18:53 | 34.03482 | -116.77653 | 14063 ft | 354 kts | 115° |
| 2026-05-08 18:53 | 34.02593 | -116.74867 | 13689 ft | 357 kts | 105° |
| 2026-05-08 18:53 | 34.01854 | -116.72020 | 13271 ft | 355 kts | 106° |
| 2026-05-08 18:53 | 34.01130 | -116.69204 | 12885 ft | 348 kts | 106° |
| 2026-05-08 18:54 | 34.00411 | -116.66442 | 12519 ft | 342 kts | 106° |
| 2026-05-08 18:54 | 33.99694 | -116.63723 | 12167 ft | 339 kts | 106° |
| 2026-05-08 18:54 | 33.98974 | -116.61022 | 11807 ft | 338 kts | 107° |
| 2026-05-08 18:54 | 33.98255 | -116.58336 | 11461 ft | 336 kts | 107° |
| 2026-05-08 18:55 | 33.96223 | -116.53377 | 10811 ft | 330 kts | 134° |
| 2026-05-08 18:55 | 33.94580 | -116.51493 | 10504 ft | 321 kts | 137° |
| 2026-05-08 18:55 | 33.92956 | -116.49705 | 10189 ft | 312 kts | 137° |
| 2026-05-08 18:56 | 33.91392 | -116.47962 | 9991 ft | 301 kts | 137° |
| 2026-05-08 18:56 | 33.89913 | -116.46291 | 9903 ft | 286 kts | 137° |
| 2026-05-08 18:56 | 33.88485 | -116.44668 | 9449 ft | 286 kts | 137° |
| 2026-05-08 18:56 | 33.87085 | -116.42991 | 9080 ft | 283 kts | 128° |
| 2026-05-08 18:57 | 33.86154 | -116.40926 | 8802 ft | 278 kts | 115° |
| 2026-05-08 18:57 | 33.85385 | -116.38821 | 8534 ft | 272 kts | 115° |
| 2026-05-08 18:57 | 33.84621 | -116.36755 | 8265 ft | 268 kts | 116° |
| 2026-05-08 18:57 | 33.83862 | -116.34722 | 8011 ft | 266 kts | 116° |
| 2026-05-08 18:58 | 33.83101 | -116.32698 | 7759 ft | 265 kts | 115° |
| 2026-05-08 18:58 | 33.82337 | -116.30680 | 7502 ft | 264 kts | 116° |
| 2026-05-08 18:58 | 33.81577 | -116.28678 | 7252 ft | 263 kts | 116° |
| 2026-05-08 18:58 | 33.80814 | -116.26676 | 6976 ft | 263 kts | 116° |
| 2026-05-08 18:59 | 33.79804 | -116.24827 | 6500 ft | 265 kts | 139° |
| 2026-05-08 18:59 | 33.78338 | -116.23671 | 6432 ft | 243 kts | 159° |
| 2026-05-08 18:59 | 33.76767 | -116.23214 | 6315 ft | 225 kts | 180° |
| 2026-05-08 18:59 | 33.75276 | -116.23391 | 6196 ft | 208 kts | 197° |
| 2026-05-08 19:00 | 33.74002 | -116.24053 | 6102 ft | 193 kts | 212° |
| 2026-05-08 19:00 | 33.72995 | -116.25044 | 5833 ft | 189 kts | 228° |
| 2026-05-08 19:00 | 33.72208 | -116.26284 | 5676 ft | 178 kts | 239° |
| 2026-05-08 19:00 | 33.71702 | -116.27565 | 5533 ft | 169 kts | 250° |
| 2026-05-08 19:01 | 33.71375 | -116.28898 | 5320 ft | 164 kts | 256° |
| 2026-05-08 19:01 | 33.71160 | -116.30261 | 4963 ft | 169 kts | 262° |
| 2026-05-08 19:01 | 33.71080 | -116.31659 | 4712 ft | 166 kts | 269° |
| 2026-05-08 19:01 | 33.71147 | -116.33060 | 4410 ft | 172 kts | 277° |
| 2026-05-08 19:02 | 33.71375 | -116.34511 | 4050 ft | 180 kts | 285° |
| 2026-05-08 19:02 | 33.71764 | -116.35947 | 3772 ft | 179 kts | 292° |
| 2026-05-08 19:02 | 33.72246 | -116.37304 | 3534 ft | 174 kts | 295° |
| 2026-05-08 19:02 | 33.72739 | -116.38625 | 3250 ft | 172 kts | 294° |
| 2026-05-08 19:03 | 33.73222 | -116.39922 | 2993 ft | 168 kts | 294° |
| 2026-05-08 19:03 | 33.73687 | -116.41176 | 2715 ft | 161 kts | 294° |
| 2026-05-08 19:03 | 33.74189 | -116.42355 | 2419 ft | 155 kts | 303° |
| 2026-05-08 19:03 | 33.74933 | -116.43253 | 2222 ft | 150 kts | 324° |
| 2026-05-08 19:04 | 33.75743 | -116.43985 | 2015 ft | 145 kts | 322° |
| 2026-05-08 19:04 | 33.76527 | -116.44715 | 1869 ft | 140 kts | 322° |
| 2026-05-08 19:04 | 33.77278 | -116.45421 | 1687 ft | 138 kts | 323° |
| 2026-05-08 19:04 | 33.78017 | -116.46170 | 1501 ft | 140 kts | 317° |
| 2026-05-08 19:05 | 33.78719 | -116.46984 | 1332 ft | 141 kts | 320° |
| 2026-05-08 19:05 | 33.79501 | -116.47686 | 1144 ft | 139 kts | 326° |
| 2026-05-08 19:05 | 33.80279 | -116.48382 | 931 ft | 139 kts | 324° |
| 2026-05-08 19:05 | 33.81058 | -116.49065 | 694 ft | 138 kts | 324° |
| 2026-05-08 19:06 | 33.81828 | -116.49751 | 510 ft | 137 kts | 323° |
| 2026-05-08 19:06 | 33.82579 | -116.50419 | 419 ft | 127 kts | 324° |
| 2026-05-08 19:06 | 33.83135 | -116.50916 | 434 ft | 47 kts | 323° |
| 2026-05-08 19:06 | 33.83317 | -116.51085 | 450 ft | 25 kts | 318° |
| 2026-05-08 19:07 | 33.83269 | -116.51198 | 450 ft | 20 kts | 189° |
| 2026-05-08 19:07 | 33.83145 | -116.51140 | 446 ft | 19 kts | 143° |
| 2026-05-08 19:07 | 33.83038 | -116.51044 | 429 ft | 19 kts | 147° |
| 2026-05-08 19:07 | 33.82937 | -116.50954 | 425 ft | 18 kts | 142° |
| 2026-05-08 19:08 | 33.82841 | -116.50859 | 432 ft | 18 kts | 142° |
| 2026-05-08 19:08 | 33.82744 | -116.50774 | 423 ft | 17 kts | 143° |
| 2026-05-08 19:08 | 33.82651 | -116.50690 | 424 ft | 17 kts | 143° |
| 2026-05-08 19:08 | 33.82548 | -116.50598 | 417 ft | 20 kts | 143° |
| 2026-05-08 19:09 | 33.82439 | -116.50502 | 418 ft | 19 kts | 144° |
| 2026-05-08 19:09 | 33.82333 | -116.50416 | 416 ft | 16 kts | 169° |
| 2026-05-08 19:09 | 33.82260 | -116.50496 | 421 ft | 15 kts | 236° |
| 2026-05-08 19:09 | 33.82219 | -116.50583 | 420 ft | 4 kts | 270° |
| 2026-05-08 19:10 | 33.82238 | -116.50607 | 426 ft | 5 kts | 324° |
| 2026-05-08 19:10 | 33.82256 | -116.50624 | 422 ft | 2 kts | 322° |
| 2026-05-08 19:10 | 33.82257 | -116.50625 | 422 ft | 0 kts | 322° |